Time;durP1;ratioP1;P1;durP2;ratioP2;P2;SDS_P1;SDS_P2;PMS_P1;PMS_P2;Temp;Humidity;BMP_temperature;BMP_pressure;BME280_temperature;BME280_humidity;BME280_pressure;Samples;Min_cycle;Max_cycle;Signal;HPM_P1;HPM_P2
2024/01/25 05:07:27;;;;;;;0.40;0.40;;;9.60;99.90;;;;;;5041152;23;20294;-70
2024/01/25 05:09:54;;;;;;;0.30;0.30;;;9.60;99.90;;;;;;4976312;28;20192;-72
2024/01/25 05:12:20;;;;;;;1.40;1.40;;;9.50;99.90;;;;;;4973897;28;20197;-70
2024/01/25 05:14:46;;;;;;;0.30;0.30;;;9.50;99.90;;;;;;4975331;28;20195;-72
2024/01/25 05:17:11;;;;;;;0.30;0.30;;;9.40;99.90;;;;;;4975583;28;20243;-71
2024/01/25 05:19:37;;;;;;;0.37;0.37;;;9.30;99.90;;;;;;4975345;28;20169;-70
2024/01/25 05:22:06;;;;;;;0.30;0.30;;;9.20;99.90;;;;;;4974152;28;20697;-71
2024/01/25 05:24:32;;;;;;;0.30;0.30;;;9.20;99.90;;;;;;4972773;28;20423;-71
2024/01/25 05:27:00;;;;;;;0.30;0.30;;;9.10;99.90;;;;;;4974809;28;20689;-71
2024/01/25 05:29:26;;;;;;;0.30;0.30;;;9.00;99.90;;;;;;4975810;28;20183;-71
2024/01/25 05:31:52;;;;;;;0.30;0.30;;;8.90;99.90;;;;;;4975604;28;20175;-71
2024/01/25 05:34:19;;;;;;;0.30;0.30;;;8.80;99.90;;;;;;4974464;28;20184;-73
2024/01/25 05:36:45;;;;;;;0.30;0.20;;;8.80;99.90;;;;;;4974961;28;20508;-72
2024/01/25 05:39:12;;;;;;;0.30;0.30;;;8.70;99.90;;;;;;4974851;28;20650;-71
2024/01/25 05:41:41;;;;;;;0.30;0.30;;;8.60;99.90;;;;;;4973841;28;20566;-72
2024/01/25 05:44:07;;;;;;;0.30;0.30;;;8.60;99.90;;;;;;4973104;28;20202;-73
2024/01/25 05:46:32;;;;;;;0.30;0.20;;;8.50;99.90;;;;;;4972792;28;20658;-72
2024/01/25 05:48:59;;;;;;;0.30;0.30;;;8.40;99.90;;;;;;4971643;28;20195;-73
2024/01/25 05:51:25;;;;;;;0.30;0.30;;;8.40;99.90;;;;;;4972588;28;20558;-73
2024/01/25 05:53:53;;;;;;;0.30;0.30;;;8.30;99.90;;;;;;4970066;28;20331;-71
2024/01/25 05:56:19;;;;;;;0.30;0.30;;;8.30;99.90;;;;;;4969606;28;20220;-72
2024/01/25 05:58:45;;;;;;;0.30;0.30;;;8.20;99.90;;;;;;4974246;28;20239;-71
2024/01/25 06:01:10;;;;;;;0.30;0.30;;;8.10;99.90;;;;;;4928010;28;20275;-72
2024/01/25 06:03:36;;;;;;;0.77;0.77;;;8.10;99.90;;;;;;4976204;28;20172;-70
2024/01/25 06:06:02;;;;;;;0.30;0.30;;;8.00;99.90;;;;;;4975951;28;20216;-72
2024/01/25 06:08:28;;;;;;;0.40;0.40;;;8.00;99.90;;;;;;4975269;28;20204;-72
2024/01/25 06:10:54;;;;;;;0.30;0.30;;;7.90;99.90;;;;;;4959484;28;20523;-70
2024/01/25 06:13:21;;;;;;;0.30;0.30;;;7.80;99.90;;;;;;4959736;28;20788;-71
2024/01/25 06:15:46;;;;;;;0.30;0.20;;;7.80;99.90;;;;;;4975212;28;20211;-70
2024/01/25 06:18:13;;;;;;;0.30;0.30;;;7.80;99.90;;;;;;4975528;28;20769;-71
2024/01/25 06:20:39;;;;;;;0.30;0.30;;;7.70;99.90;;;;;;4975758;28;20184;-71
2024/01/25 06:23:04;;;;;;;0.30;0.30;;;7.60;99.90;;;;;;4976508;28;20171;-70
2024/01/25 06:25:31;;;;;;;0.30;0.30;;;7.60;99.90;;;;;;4977509;28;20430;-70
2024/01/25 06:27:58;;;;;;;0.30;0.30;;;7.50;99.90;;;;;;4976656;28;20298;-72
2024/01/25 06:30:24;;;;;;;0.30;0.30;;;7.50;99.90;;;;;;4977676;28;20180;-71
2024/01/25 06:32:50;;;;;;;0.40;0.40;;;7.40;99.90;;;;;;4977347;28;20595;-74
2024/01/25 06:35:16;;;;;;;0.40;0.40;;;7.30;99.90;;;;;;4977156;28;20198;-70
2024/01/25 06:37:41;;;;;;;0.30;0.30;;;7.30;99.90;;;;;;4975985;28;20646;-75
2024/01/25 06:40:08;;;;;;;0.40;0.40;;;7.30;99.90;;;;;;4977294;28;20226;-73
2024/01/25 06:42:34;;;;;;;0.30;0.30;;;7.20;99.90;;;;;;4977480;28;20655;-74
2024/01/25 06:44:59;;;;;;;0.40;0.40;;;7.20;99.90;;;;;;4977560;28;20191;-72
2024/01/25 06:47:25;;;;;;;0.30;0.30;;;7.20;99.90;;;;;;4977691;28;20562;-73
2024/01/25 06:49:54;;;;;;;0.40;0.40;;;7.10;99.90;;;;;;4974979;28;20235;-74
2024/01/25 06:52:20;;;;;;;0.30;0.30;;;7.10;99.90;;;;;;4977364;28;20590;-74
2024/01/25 06:54:47;;;;;;;0.30;0.30;;;7.10;99.90;;;;;;4976396;28;20164;-75
2024/01/25 06:57:14;;;;;;;0.30;0.30;;;7.10;99.90;;;;;;4977103;28;20263;-75
2024/01/25 06:59:41;;;;;;;0.40;0.40;;;7.00;99.90;;;;;;4976684;28;20191;-75
2024/01/25 07:02:07;;;;;;;0.40;0.40;;;7.00;99.90;;;;;;4976577;28;20187;-74
2024/01/25 07:04:32;;;;;;;0.30;0.30;;;7.00;99.90;;;;;;4958761;28;20180;-75
2024/01/25 07:06:59;;;;;;;0.30;0.30;;;7.00;99.90;;;;;;4977624;28;20493;-73
2024/01/25 07:09:27;;;;;;;0.30;0.30;;;7.00;99.90;;;;;;4959588;28;20519;-74
2024/01/25 07:11:53;;;;;;;0.30;0.30;;;7.00;99.90;;;;;;4976846;28;20180;-66
2024/01/25 07:14:20;;;;;;;0.30;0.30;;;7.10;99.90;;;;;;4975499;28;20213;-76
2024/01/25 07:16:47;;;;;;;0.30;0.30;;;7.10;99.90;;;;;;4976740;28;20211;-72
2024/01/25 07:19:15;;;;;;;0.40;0.40;;;7.10;99.90;;;;;;4981688;28;20172;-72
2024/01/25 07:21:45;;;;;;;0.30;0.30;;;7.20;99.90;;;;;;4979526;28;20653;-73
2024/01/25 07:24:12;;;;;;;0.40;0.40;;;7.20;99.90;;;;;;4939883;28;20555;-73
2024/01/25 07:26:38;;;;;;;0.40;0.40;;;7.20;99.90;;;;;;4957398;28;20200;-74
2024/01/25 07:29:04;;;;;;;0.30;0.30;;;7.30;99.90;;;;;;4969159;28;20196;-74
2024/01/25 07:31:31;;;;;;;0.40;0.40;;;7.30;99.90;;;;;;4976850;28;20184;-74
2024/01/25 07:33:57;;;;;;;0.32;0.32;;;7.40;99.90;;;;;;4977169;28;20176;-72
2024/01/25 07:36:24;;;;;;;0.30;0.30;;;7.50;99.90;;;;;;4981332;28;20692;-75
2024/01/25 07:38:51;;;;;;;0.30;0.30;;;7.60;99.90;;;;;;4974707;28;20180;-73
2024/01/25 07:41:16;;;;;;;0.85;0.75;;;7.70;99.90;;;;;;4978765;28;20690;-71
2024/01/25 07:43:42;;;;;;;0.30;0.30;;;7.80;99.90;;;;;;4972973;28;20220;-72
2024/01/25 07:46:08;;;;;;;0.30;0.30;;;8.10;99.90;;;;;;4975861;28;20188;-71
2024/01/25 07:48:34;;;;;;;0.40;0.40;;;8.30;99.90;;;;;;4965903;28;20271;-71
2024/01/25 07:50:59;;;;;;;0.30;0.30;;;8.50;99.90;;;;;;4982473;28;20252;-74
2024/01/25 07:53:26;;;;;;;0.40;0.40;;;8.80;99.90;;;;;;4977807;28;20192;-75
2024/01/25 07:55:52;;;;;;;0.30;0.30;;;9.00;99.90;;;;;;4982962;28;20224;-74
2024/01/25 07:58:18;;;;;;;2.10;0.73;;;9.30;99.90;;;;;;4984993;28;20221;-73
2024/01/25 08:00:45;;;;;;;0.30;0.30;;;9.60;99.90;;;;;;4985172;28;20185;-73
2024/01/25 08:03:11;;;;;;;0.30;0.30;;;9.90;99.90;;;;;;4981578;28;20189;-72
2024/01/25 08:05:37;;;;;;;0.30;0.20;;;10.20;99.90;;;;;;4975088;28;20790;-73
2024/01/25 08:08:05;;;;;;;0.30;0.30;;;10.50;99.90;;;;;;4967014;28;20203;-70
2024/01/25 08:10:31;;;;;;;0.30;0.30;;;10.80;99.90;;;;;;4949868;28;20194;-74
2024/01/25 08:12:58;;;;;;;0.30;0.30;;;11.00;99.90;;;;;;4974995;28;20429;-73
2024/01/25 08:15:24;;;;;;;0.30;0.20;;;11.20;99.90;;;;;;4966344;28;20219;-74
2024/01/25 08:17:50;;;;;;;0.30;0.30;;;11.40;99.90;;;;;;4978077;28;20449;-72
2024/01/25 08:20:15;;;;;;;0.40;0.40;;;11.50;99.90;;;;;;4977024;28;20408;-73
2024/01/25 08:22:42;;;;;;;0.30;0.30;;;11.60;99.90;;;;;;4979792;28;20179;-73
2024/01/25 08:25:13;;;;;;;0.30;0.30;;;11.70;99.90;;;;;;4974591;28;20179;-75
2024/01/25 08:27:39;;;;;;;0.30;0.30;;;11.80;99.90;;;;;;4975711;28;20426;-74
2024/01/25 08:30:06;;;;;;;0.40;0.40;;;11.90;99.90;;;;;;4974957;28;20499;-74
2024/01/25 08:32:31;;;;;;;0.30;0.30;;;12.10;99.90;;;;;;4975039;28;20408;-77
2024/01/25 08:34:57;;;;;;;0.30;0.20;;;12.30;99.90;;;;;;4974978;28;20409;-78
2024/01/25 08:37:23;;;;;;;0.30;0.30;;;12.60;99.90;;;;;;4974752;28;20254;-75
2024/01/25 08:39:50;;;;;;;0.30;0.30;;;13.00;99.90;;;;;;4975035;28;20216;-77
2024/01/25 08:42:17;;;;;;;0.30;0.30;;;13.50;99.90;;;;;;4974975;28;20194;-75
2024/01/25 08:44:48;;;;;;;0.40;0.40;;;14.10;99.90;;;;;;4975270;28;20414;-77
2024/01/25 08:47:17;;;;;;;0.30;0.30;;;14.70;99.90;;;;;;4975151;28;20436;-77
2024/01/25 08:49:44;;;;;;;0.30;0.20;;;15.30;99.90;;;;;;4974497;28;20445;-77
2024/01/25 08:52:11;;;;;;;0.30;0.20;;;15.80;99.90;;;;;;4974679;28;20765;-76
2024/01/25 08:54:37;;;;;;;0.60;0.60;;;16.30;99.90;;;;;;4974186;28;20178;-77
2024/01/25 08:57:04;;;;;;;0.30;0.20;;;16.70;99.30;;;;;;4972172;28;20526;-74
2024/01/25 08:59:32;;;;;;;0.30;0.20;;;17.00;98.40;;;;;;4971133;28;20399;-74
2024/01/25 09:01:59;;;;;;;0.30;0.30;;;17.30;97.30;;;;;;4965796;28;20448;-74
2024/01/25 09:04:24;;;;;;;0.30;0.30;;;17.50;97.10;;;;;;4973965;28;20404;-74
2024/01/25 09:06:50;;;;;;;0.30;0.30;;;17.70;96.80;;;;;;4974427;28;20992;-73
2024/01/25 09:09:17;;;;;;;0.30;0.30;;;18.00;96.60;;;;;;4983108;28;20195;-74
2024/01/25 09:11:42;;;;;;;0.30;0.20;;;18.30;95.50;;;;;;4976847;28;20211;-73
2024/01/25 09:14:08;;;;;;;0.30;0.20;;;18.70;95.30;;;;;;4974372;28;20449;-73
2024/01/25 09:16:34;;;;;;;0.30;0.20;;;18.90;94.30;;;;;;4973270;28;20295;-71
2024/01/25 09:19:01;;;;;;;0.30;0.30;;;18.90;94.40;;;;;;4973626;28;20188;-71
2024/01/25 09:21:27;;;;;;;0.30;0.20;;;18.90;94.20;;;;;;4972871;28;20444;-69
2024/01/25 09:23:52;;;;;;;0.30;0.20;;;18.80;94.10;;;;;;4974418;28;20395;-72
2024/01/25 09:26:18;;;;;;;0.30;0.30;;;18.70;93.90;;;;;;4973900;28;20275;-71
2024/01/25 09:28:43;;;;;;;0.47;0.30;;;18.80;93.50;;;;;;4973002;28;20244;-74
2024/01/25 09:31:09;;;;;;;0.47;0.47;;;19.00;93.80;;;;;;4974774;28;20177;-71
2024/01/25 09:33:37;;;;;;;0.30;0.30;;;19.20;93.50;;;;;;4977510;28;20542;-71
2024/01/25 09:36:03;;;;;;;0.30;0.30;;;19.20;92.50;;;;;;4976167;28;20432;-72
2024/01/25 09:38:29;;;;;;;0.30;0.20;;;19.30;92.60;;;;;;4978044;28;20380;-70
2024/01/25 09:40:56;;;;;;;0.30;0.20;;;19.30;92.40;;;;;;4977735;28;20412;-68
2024/01/25 09:43:22;;;;;;;0.30;0.20;;;19.30;91.90;;;;;;4976143;28;20430;-72
2024/01/25 09:45:56;;;;;;;0.30;0.20;;;19.40;91.70;;;;;;4976174;28;20388;-73
2024/01/25 09:48:22;;;;;;;0.50;0.50;;;19.10;92.00;;;;;;4977473;28;20531;-68
2024/01/25 09:50:48;;;;;;;0.30;0.20;;;19.20;92.40;;;;;;4973760;28;20401;-72
2024/01/25 09:53:23;;;;;;;0.30;0.27;;;19.50;91.70;;;;;;4977698;28;20720;-70
2024/01/25 09:56:07;;;;;;;0.30;0.30;;;19.60;91.10;;;;;;4975854;28;20492;-70
2024/01/25 09:58:39;;;;;;;0.30;0.20;;;19.50;91.20;;;;;;4976148;28;20486;-71
2024/01/25 10:01:12;;;;;;;0.50;0.40;;;19.30;91.30;;;;;;4977322;28;20378;-73
2024/01/25 10:03:40;;;;;;;0.30;0.20;;;18.70;91.40;;;;;;4981729;28;20401;-73
2024/01/25 10:06:06;;;;;;;0.30;0.20;;;18.20;92.40;;;;;;4996246;28;20453;-69
2024/01/25 10:08:31;;;;;;;0.30;0.30;;;17.50;93.20;;;;;;4995743;28;20412;-70
2024/01/25 10:10:57;;;;;;;0.30;0.30;;;17.20;93.50;;;;;;4996428;28;20761;-69
2024/01/25 10:13:23;;;;;;;0.30;0.20;;;16.60;93.80;;;;;;4997087;28;20398;-71
2024/01/25 10:15:49;;;;;;;0.30;0.30;;;16.20;94.20;;;;;;4996904;28;20196;-72
2024/01/25 10:18:15;;;;;;;0.30;0.20;;;15.80;95.20;;;;;;4993441;28;20650;-72
2024/01/25 10:20:42;;;;;;;0.30;0.20;;;15.40;95.70;;;;;;4977117;28;20398;-73
2024/01/25 10:23:09;;;;;;;0.30;0.30;;;15.10;96.20;;;;;;4976957;28;20397;-68
2024/01/25 10:25:37;;;;;;;0.30;0.30;;;14.80;97.10;;;;;;4977007;28;20390;-69
2024/01/25 10:28:23;;;;;;;0.30;0.30;;;14.60;97.70;;;;;;4975664;28;20440;-75
2024/01/25 10:30:51;;;;;;;0.33;0.33;;;14.30;98.40;;;;;;4957712;29;20406;-75
2024/01/25 10:33:18;;;;;;;0.30;0.30;;;14.00;99.20;;;;;;4963646;28;20883;-75
2024/01/25 10:35:49;;;;;;;0.30;0.30;;;14.00;99.50;;;;;;4974838;28;20453;-67
2024/01/25 10:38:17;;;;;;;0.30;0.30;;;14.00;99.50;;;;;;4976361;28;20776;-67
2024/01/25 10:40:45;;;;;;;0.30;0.30;;;14.10;99.50;;;;;;4976753;28;20412;-67
2024/01/25 10:43:11;;;;;;;1.90;1.43;;;14.20;99.10;;;;;;4975487;28;20401;-67
2024/01/25 10:45:37;;;;;;;0.33;0.33;;;14.50;99.60;;;;;;4975690;28;20420;-68
2024/01/25 10:48:03;;;;;;;0.30;0.30;;;14.80;98.70;;;;;;4976244;28;20196;-68
2024/01/25 10:50:29;;;;;;;0.30;0.30;;;14.90;97.70;;;;;;4975522;28;20184;-68
2024/01/25 10:52:56;;;;;;;1.00;0.90;;;15.00;97.30;;;;;;4974430;28;20417;-68
2024/01/25 10:55:22;;;;;;;0.90;0.90;;;14.80;97.50;;;;;;4975579;28;20262;-68
2024/01/25 10:57:48;;;;;;;0.30;0.30;;;15.00;97.90;;;;;;4975390;28;20447;-68
2024/01/25 11:00:16;;;;;;;0.30;0.20;;;15.20;97.40;;;;;;4975668;28;20423;-74
2024/01/25 11:02:43;;;;;;;0.30;0.20;;;15.40;96.60;;;;;;4980228;28;20522;-77
2024/01/25 11:05:13;;;;;;;0.30;0.20;;;15.30;96.60;;;;;;4983967;28;20426;-75
2024/01/25 11:07:50;;;;;;;0.30;0.30;;;15.50;96.20;;;;;;4942149;28;20484;-76
2024/01/25 11:10:25;;;;;;;0.67;0.37;;;15.70;95.90;;;;;;4975517;28;20464;-68
2024/01/25 11:13:03;;;;;;;0.30;0.20;;;15.90;95.70;;;;;;4975485;28;20389;-67
2024/01/25 11:15:34;;;;;;;0.30;0.20;;;16.20;95.40;;;;;;4975519;28;20821;-67
2024/01/25 11:18:01;;;;;;;0.30;0.23;;;16.10;95.00;;;;;;4975665;28;20767;-67
2024/01/25 11:20:28;;;;;;;0.30;0.30;;;16.20;95.40;;;;;;4974016;28;20406;-67
2024/01/25 11:23:04;;;;;;;0.30;0.30;;;16.30;95.20;;;;;;4974642;28;20892;-67
2024/01/25 11:25:34;;;;;;;0.30;0.30;;;16.30;94.90;;;;;;4975516;28;20487;-66
2024/01/25 11:28:02;;;;;;;0.30;0.30;;;16.00;94.70;;;;;;4976496;28;20786;-66
2024/01/25 11:30:30;;;;;;;0.30;0.30;;;15.70;94.80;;;;;;4974667;28;20412;-67
2024/01/25 11:32:56;;;;;;;0.30;0.30;;;15.40;95.00;;;;;;4985587;28;20401;-67
2024/01/25 11:35:22;;;;;;;0.30;0.30;;;15.00;95.90;;;;;;4994789;28;20485;-67
2024/01/25 11:37:51;;;;;;;0.30;0.30;;;14.80;96.10;;;;;;4994591;28;20435;-66
2024/01/25 11:40:16;;;;;;;0.30;0.20;;;14.70;96.50;;;;;;4994759;28;20418;-65
2024/01/25 11:42:44;;;;;;;0.30;0.30;;;14.60;96.70;;;;;;4984779;28;20427;-66
2024/01/25 11:45:11;;;;;;;0.30;0.20;;;14.40;96.80;;;;;;4973615;28;20542;-67
2024/01/25 11:47:38;;;;;;;0.30;0.30;;;14.40;96.90;;;;;;4973654;28;20452;-67
2024/01/25 11:50:05;;;;;;;0.30;0.30;;;14.40;97.20;;;;;;4973939;28;20503;-66
2024/01/25 11:52:33;;;;;;;0.30;0.30;;;14.30;97.30;;;;;;4975440;28;20454;-66
2024/01/25 11:55:01;;;;;;;0.30;0.30;;;14.30;96.60;;;;;;4974248;28;20418;-65
2024/01/25 11:57:27;;;;;;;0.30;0.30;;;14.20;96.60;;;;;;4975133;28;20756;-66
2024/01/25 11:59:54;;;;;;;0.30;0.30;;;14.10;96.60;;;;;;4974984;28;20430;-66
2024/01/25 12:02:20;;;;;;;0.30;0.30;;;14.20;97.00;;;;;;4984959;28;20446;-64
2024/01/25 12:04:47;;;;;;;0.30;0.30;;;14.20;96.70;;;;;;4994893;28;20426;-75
2024/01/25 12:07:14;;;;;;;0.40;0.40;;;14.20;96.90;;;;;;4954235;28;20212;-76
2024/01/25 12:09:39;;;;;;;0.30;0.30;;;14.20;97.50;;;;;;4955573;29;20804;-75
2024/01/25 12:12:05;;;;;;;0.30;0.30;;;14.20;98.00;;;;;;4965206;28;20429;-74
2024/01/25 12:14:31;;;;;;;0.30;0.20;;;14.10;98.10;;;;;;4963120;28;20260;-75
2024/01/25 12:16:57;;;;;;;0.30;0.30;;;14.00;98.10;;;;;;4974661;28;20526;-75
2024/01/25 12:19:24;;;;;;;0.30;0.30;;;13.90;98.20;;;;;;4957503;28;20193;-75
2024/01/25 12:21:52;;;;;;;0.40;0.40;;;13.70;98.60;;;;;;4974877;28;20475;-75
2024/01/25 12:24:19;;;;;;;0.30;0.30;;;13.60;99.10;;;;;;4955052;28;20222;-77
2024/01/25 12:26:47;;;;;;;0.30;0.30;;;13.30;99.60;;;;;;4973288;28;20838;-76
2024/01/25 12:29:13;;;;;;;0.30;0.30;;;13.20;99.90;;;;;;4973276;28;20401;-74
2024/01/25 12:31:39;;;;;;;0.40;0.40;;;13.00;99.90;;;;;;4974857;28;20446;-74
2024/01/25 12:34:14;;;;;;;0.30;0.30;;;12.90;99.90;;;;;;4973557;28;20508;-75
2024/01/25 12:36:40;;;;;;;0.30;0.30;;;12.80;99.90;;;;;;4971784;28;20226;-75
2024/01/25 12:39:06;;;;;;;0.30;0.30;;;12.70;99.90;;;;;;4973296;28;20427;-75
2024/01/25 12:41:32;;;;;;;0.30;0.20;;;12.60;99.90;;;;;;4974546;28;20550;-74
2024/01/25 12:43:57;;;;;;;0.30;0.30;;;12.50;99.90;;;;;;4974544;28;20386;-75
2024/01/25 12:46:23;;;;;;;0.30;0.30;;;12.50;99.90;;;;;;4958783;28;20223;-75
2024/01/25 12:48:49;;;;;;;0.30;0.30;;;12.50;99.90;;;;;;4974727;28;20638;-76
2024/01/25 12:51:15;;;;;;;0.30;0.30;;;12.40;99.90;;;;;;4945030;29;20201;-75
2024/01/25 12:53:40;;;;;;;0.30;0.20;;;12.50;99.90;;;;;;4970036;28;20214;-76
2024/01/25 12:56:06;;;;;;;0.40;0.40;;;12.40;99.90;;;;;;4973929;28;20473;-76
2024/01/25 12:58:32;;;;;;;0.30;0.30;;;12.50;99.90;;;;;;4974921;28;20187;-74
2024/01/25 13:00:58;;;;;;;0.50;0.50;;;12.40;99.90;;;;;;4972268;28;20684;-74
2024/01/25 13:03:24;;;;;;;0.30;0.30;;;12.50;99.90;;;;;;4974790;28;20412;-74
2024/01/25 13:05:51;;;;;;;0.30;0.30;;;12.40;99.90;;;;;;4975152;28;20187;-74
2024/01/25 13:08:18;;;;;;;0.30;0.20;;;12.40;99.90;;;;;;4978004;28;20479;-74
2024/01/25 13:10:43;;;;;;;0.30;0.30;;;12.30;99.90;;;;;;4977109;28;20423;-73
2024/01/25 13:13:09;;;;;;;0.30;0.30;;;12.30;99.90;;;;;;4977668;28;20438;-63
2024/01/25 13:15:35;;;;;;;0.30;0.30;;;12.30;99.90;;;;;;4977059;28;20211;-63
2024/01/25 13:18:01;;;;;;;0.30;0.30;;;12.30;99.90;;;;;;4977245;28;20443;-63
2024/01/25 13:20:26;;;;;;;0.30;0.30;;;12.30;99.90;;;;;;4985193;28;20515;-64
2024/01/25 13:22:52;;;;;;;0.40;0.40;;;12.30;99.90;;;;;;4976491;28;20633;-65
2024/01/25 13:25:17;;;;;;;0.30;0.30;;;12.30;99.90;;;;;;4977128;28;20249;-64
2024/01/25 13:27:44;;;;;;;0.30;0.30;;;12.40;99.90;;;;;;4976872;28;20562;-65
2024/01/25 13:30:12;;;;;;;0.30;0.30;;;12.40;99.40;;;;;;4977661;28;20743;-62
2024/01/25 13:32:37;;;;;;;0.30;0.30;;;12.40;99.20;;;;;;4996080;28;20915;-64
2024/01/25 13:35:04;;;;;;;0.33;0.33;;;12.30;99.20;;;;;;4982565;28;20456;-64
2024/01/25 13:37:29;;;;;;;0.30;0.30;;;12.30;99.50;;;;;;4977617;28;20208;-65
2024/01/25 13:39:55;;;;;;;0.30;0.20;;;12.30;99.70;;;;;;4993358;28;20401;-65
2024/01/25 13:42:24;;;;;;;0.30;0.20;;;12.30;99.80;;;;;;4973593;28;20195;-75
2024/01/25 13:44:49;;;;;;;0.30;0.30;;;12.30;99.90;;;;;;4973654;28;20186;-77
2024/01/25 13:47:15;;;;;;;0.30;0.30;;;12.30;99.90;;;;;;4972971;28;20434;-64
2024/01/25 13:49:44;;;;;;;0.30;0.30;;;12.20;99.90;;;;;;4973278;28;20427;-76
2024/01/25 13:52:18;;;;;;;0.30;0.30;;;12.10;99.90;;;;;;4973001;28;20286;-78
2024/01/25 13:54:44;;;;;;;0.30;0.30;;;12.20;99.90;;;;;;4972893;28;20464;-77
2024/01/25 13:57:09;;;;;;;0.30;0.30;;;12.10;99.90;;;;;;4973018;28;20498;-78
2024/01/25 13:59:35;;;;;;;0.30;0.30;;;12.10;99.90;;;;;;4974027;28;20191;-74
2024/01/25 14:02:00;;;;;;;0.30;0.20;;;12.00;99.90;;;;;;4975167;28;20690;-75
2024/01/25 14:04:26;;;;;;;0.30;0.30;;;12.00;99.90;;;;;;4976711;28;20192;-76
2024/01/25 14:06:52;;;;;;;0.30;0.30;;;12.00;99.90;;;;;;4978130;28;20213;-74
2024/01/25 14:09:17;;;;;;;0.30;0.30;;;11.90;99.90;;;;;;4975577;28;20423;-76
2024/01/25 14:11:43;;;;;;;0.30;0.30;;;11.80;99.90;;;;;;4975623;28;20188;-77
2024/01/25 14:14:09;;;;;;;0.30;0.30;;;11.80;99.90;;;;;;4976426;28;20183;-74
2024/01/25 14:16:35;;;;;;;0.30;0.30;;;11.80;99.90;;;;;;4976991;28;20220;-74
2024/01/25 14:19:03;;;;;;;0.30;0.30;;;11.80;99.90;;;;;;4976946;28;20233;-76
2024/01/25 14:21:30;;;;;;;0.30;0.20;;;11.80;99.90;;;;;;4976413;28;20417;-75
2024/01/25 14:23:58;;;;;;;0.30;0.30;;;11.90;99.90;;;;;;4980711;28;20861;-76
2024/01/25 14:26:24;;;;;;;0.30;0.20;;;11.90;99.90;;;;;;4976592;28;20975;-75
2024/01/25 14:28:50;;;;;;;0.30;0.30;;;12.00;99.90;;;;;;4976137;28;20418;-75
2024/01/25 14:31:15;;;;;;;0.30;0.30;;;12.00;99.90;;;;;;4943028;28;20207;-72
2024/01/25 14:33:42;;;;;;;0.40;0.40;;;12.00;99.90;;;;;;4976723;28;20187;-70
2024/01/25 14:36:07;;;;;;;0.30;0.30;;;12.10;99.90;;;;;;4976659;28;20203;-71
2024/01/25 14:38:33;;;;;;;0.30;0.20;;;12.10;99.90;;;;;;4979387;28;20430;-70
2024/01/25 14:40:59;;;;;;;0.30;0.20;;;12.10;99.90;;;;;;4990153;28;20420;-71
2024/01/25 14:43:25;;;;;;;0.30;0.20;;;12.00;99.90;;;;;;4976526;28;20187;-71
2024/01/25 14:45:52;;;;;;;0.30;0.30;;;11.90;99.90;;;;;;4976374;28;20467;-69
2024/01/25 14:48:18;;;;;;;0.40;0.40;;;11.80;99.90;;;;;;4977020;28;20535;-72
2024/01/25 14:50:43;;;;;;;0.70;0.63;;;11.70;99.90;;;;;;4975715;28;20414;-70
2024/01/25 14:53:09;;;;;;;0.30;0.30;;;11.60;99.90;;;;;;4977359;28;20765;-72
2024/01/25 14:55:35;;;;;;;0.30;0.30;;;11.60;99.90;;;;;;4996155;28;20202;-71
2024/01/25 14:58:00;;;;;;;0.30;0.30;;;11.60;99.90;;;;;;4995677;28;20220;-71
2024/01/25 15:00:26;;;;;;;0.30;0.30;;;11.60;99.90;;;;;;4995767;28;20177;-71
2024/01/25 15:02:51;;;;;;;0.30;0.30;;;11.60;99.90;;;;;;4996165;28;20212;-71
2024/01/25 15:05:17;;;;;;;0.30;0.30;;;11.50;99.90;;;;;;4995505;28;20219;-71
2024/01/25 15:07:45;;;;;;;0.30;0.30;;;11.50;99.90;;;;;;4995106;28;20197;-71
2024/01/25 15:10:11;;;;;;;0.30;0.30;;;11.40;99.90;;;;;;4976650;28;20912;-71
2024/01/25 15:12:37;;;;;;;0.40;0.40;;;11.40;99.90;;;;;;4976543;28;20402;-72
2024/01/25 15:15:03;;;;;;;0.63;0.63;;;11.30;99.90;;;;;;4976070;28;20410;-70
2024/01/25 15:17:28;;;;;;;0.40;0.40;;;11.30;99.90;;;;;;4976412;28;20236;-70
2024/01/25 15:19:54;;;;;;;0.30;0.30;;;11.20;99.90;;;;;;4975097;28;20537;-71
2024/01/25 15:22:22;;;;;;;0.30;0.20;;;11.20;99.90;;;;;;4976519;28;20182;-70
2024/01/25 15:24:49;;;;;;;0.30;0.30;;;11.10;99.90;;;;;;4988280;28;20175;-70
2024/01/25 15:27:14;;;;;;;0.30;0.30;;;11.00;99.90;;;;;;4987465;28;20873;-70
2024/01/25 15:29:41;;;;;;;0.30;0.20;;;11.00;99.90;;;;;;4975895;28;20438;-71
2024/01/25 15:32:07;;;;;;;0.30;0.30;;;11.00;99.90;;;;;;4976554;28;20189;-70
2024/01/25 15:34:32;;;;;;;0.30;0.30;;;11.00;99.90;;;;;;4975656;28;20423;-71
2024/01/25 15:36:58;;;;;;;0.30;0.30;;;11.00;99.90;;;;;;4975922;28;20297;-71
2024/01/25 15:39:24;;;;;;;0.40;0.40;;;11.00;99.90;;;;;;4975885;28;20179;-70
2024/01/25 15:41:50;;;;;;;0.30;0.30;;;11.10;99.90;;;;;;4976101;28;20202;-71
2024/01/25 15:44:16;;;;;;;0.30;0.30;;;11.10;99.90;;;;;;4975468;28;20530;-72
2024/01/25 15:46:43;;;;;;;0.30;0.30;;;11.10;99.90;;;;;;4974372;28;20439;-71
2024/01/25 15:49:08;;;;;;;0.30;0.30;;;11.10;99.90;;;;;;4975780;28;20493;-72
2024/01/25 15:51:34;;;;;;;0.30;0.20;;;11.10;99.90;;;;;;4976095;28;20510;-71
2024/01/25 15:54:00;;;;;;;0.33;0.33;;;11.10;99.90;;;;;;4975968;28;20550;-70
2024/01/25 15:56:26;;;;;;;0.60;0.60;;;11.20;99.90;;;;;;4975471;28;20206;-71
2024/01/25 15:58:53;;;;;;;0.40;0.40;;;11.20;99.90;;;;;;4975954;28;20429;-70
2024/01/25 16:01:18;;;;;;;0.30;0.30;;;11.10;99.90;;;;;;4954632;29;20690;-70
2024/01/25 16:03:45;;;;;;;0.30;0.30;;;11.10;99.90;;;;;;4954352;29;20466;-70
2024/01/25 16:06:11;;;;;;;0.30;0.30;;;11.10;99.90;;;;;;4955073;28;20202;-71
2024/01/25 16:08:37;;;;;;;0.30;0.30;;;11.10;99.90;;;;;;4955379;28;20451;-70
2024/01/25 16:11:02;;;;;;;0.33;0.33;;;11.10;99.90;;;;;;4955336;29;20188;-70
2024/01/25 16:13:28;;;;;;;0.40;0.40;;;11.10;99.90;;;;;;4955926;29;20202;-71
2024/01/25 16:15:55;;;;;;;0.30;0.30;;;11.00;99.90;;;;;;4956484;29;20920;-70
2024/01/25 16:18:20;;;;;;;0.30;0.30;;;11.10;99.90;;;;;;4955255;28;20196;-71
2024/01/25 16:20:47;;;;;;;0.60;0.60;;;11.10;99.90;;;;;;4954175;29;20416;-71
2024/01/25 16:23:13;;;;;;;0.30;0.30;;;11.10;99.90;;;;;;4969522;28;20188;-71
2024/01/25 16:25:39;;;;;;;0.30;0.30;;;11.10;99.90;;;;;;4972633;28;20841;-70
2024/01/25 16:28:05;;;;;;;0.60;0.60;;;11.00;99.90;;;;;;4972692;28;20445;-70
2024/01/25 16:30:32;;;;;;;0.33;0.33;;;11.10;99.90;;;;;;4972891;28;20213;-71
2024/01/25 16:32:57;;;;;;;0.30;0.30;;;11.00;99.90;;;;;;4989406;28;20186;-70
2024/01/25 16:35:24;;;;;;;0.30;0.30;;;11.00;99.90;;;;;;4993863;28;20503;-70
2024/01/25 16:37:49;;;;;;;0.30;0.30;;;11.00;99.90;;;;;;4993893;28;20465;-71
2024/01/25 16:40:15;;;;;;;0.37;0.37;;;11.00;99.90;;;;;;4994283;28;20186;-71
2024/01/25 16:42:41;;;;;;;0.30;0.20;;;11.00;99.90;;;;;;4993194;28;20583;-70
2024/01/25 16:45:09;;;;;;;0.30;0.30;;;11.00;99.90;;;;;;4993374;28;20172;-71
2024/01/25 16:47:36;;;;;;;0.30;0.27;;;11.00;99.90;;;;;;4974615;28;20413;-70
2024/01/25 16:50:02;;;;;;;0.50;0.50;;;11.00;99.90;;;;;;4974643;28;20752;-70
2024/01/25 16:52:27;;;;;;;0.30;0.30;;;11.00;99.90;;;;;;4974570;28;20421;-71
2024/01/25 16:54:53;;;;;;;0.30;0.30;;;11.00;99.90;;;;;;4974045;28;20416;-70
2024/01/25 16:57:19;;;;;;;0.30;0.30;;;11.00;99.90;;;;;;4974440;28;20215;-71
2024/01/25 16:59:44;;;;;;;0.30;0.30;;;11.00;99.90;;;;;;4974685;28;20197;-71
2024/01/25 17:02:10;;;;;;;0.30;0.30;;;11.00;99.90;;;;;;4974504;28;20185;-72
2024/01/25 17:04:35;;;;;;;0.30;0.30;;;11.00;99.90;;;;;;4973963;28;20261;-72
2024/01/25 17:07:02;;;;;;;0.30;0.30;;;10.90;99.90;;;;;;4974235;28;20198;-71
2024/01/25 17:09:28;;;;;;;0.30;0.20;;;10.90;99.90;;;;;;4973848;28;20197;-72
2024/01/25 17:11:53;;;;;;;0.30;0.30;;;10.90;99.90;;;;;;4985583;28;20769;-71
2024/01/25 17:14:19;;;;;;;0.30;0.20;;;10.80;99.90;;;;;;4978267;28;20191;-72
2024/01/25 17:16:45;;;;;;;0.30;0.30;;;10.70;99.90;;;;;;4973772;28;20214;-68
2024/01/25 17:19:10;;;;;;;0.30;0.30;;;10.70;99.90;;;;;;4973817;28;20180;-67
2024/01/25 17:21:36;;;;;;;0.30;0.30;;;10.70;99.90;;;;;;4973663;28;20548;-68
2024/01/25 17:24:02;;;;;;;0.30;0.20;;;10.60;99.90;;;;;;4956293;28;20309;-69
2024/01/25 17:26:28;;;;;;;0.40;0.40;;;10.60;99.90;;;;;;4971555;28;20202;-70
2024/01/25 17:28:55;;;;;;;0.30;0.20;;;10.60;99.90;;;;;;4973861;28;20193;-71
2024/01/25 17:31:21;;;;;;;0.30;0.30;;;10.50;99.90;;;;;;4973993;28;20184;-69
2024/01/25 17:33:47;;;;;;;0.30;0.30;;;10.30;99.90;;;;;;4973450;28;20463;-68
2024/01/25 17:36:13;;;;;;;0.30;0.30;;;10.20;99.90;;;;;;4974057;28;20212;-71
2024/01/25 17:38:43;;;;;;;0.32;0.32;;;10.20;99.90;;;;;;4977033;28;20423;-69
2024/01/25 17:41:09;;;;;;;0.30;0.30;;;10.20;99.90;;;;;;4993978;28;20585;-70
2024/01/25 17:43:35;;;;;;;0.30;0.30;;;10.10;99.90;;;;;;4979847;28;20217;-69
2024/01/25 17:46:01;;;;;;;0.30;0.30;;;10.10;99.90;;;;;;4973213;28;20181;-70
2024/01/25 17:48:27;;;;;;;0.30;0.30;;;10.00;99.90;;;;;;4974726;28;20452;-70
2024/01/25 17:50:53;;;;;;;0.30;0.30;;;9.90;99.90;;;;;;4974055;28;20181;-66
2024/01/25 17:53:18;;;;;;;0.30;0.20;;;9.90;99.90;;;;;;4976253;28;20709;-69